sensor_id;sensor_type;location;lat;lon;timestamp;P1;durP1;ratioP1;P2;durP2;ratioP2
6249;SDS011;3158;52.148;11.568;2023-04-01T00:00:53;1.55;;;0.50;;
6249;SDS011;3158;52.148;11.568;2023-04-01T00:05:55;0.43;;;0.43;;
6249;SDS011;3158;52.148;11.568;2023-04-01T00:10:56;2.03;;;0.30;;
6249;SDS011;3158;52.148;11.568;2023-04-01T00:15:57;0.45;;;0.30;;
6249;SDS011;3158;52.148;11.568;2023-04-01T00:20:58;0.68;;;0.60;;
6249;SDS011;3158;52.148;11.568;2023-04-01T00:26:00;0.30;;;0.30;;
6249;SDS011;3158;52.148;11.568;2023-04-01T00:31:05;0.68;;;0.40;;
6249;SDS011;3158;52.148;11.568;2023-04-01T00:41:10;1.38;;;0.40;;
6249;SDS011;3158;52.148;11.568;2023-04-01T00:46:14;0.38;;;0.38;;
6249;SDS011;3158;52.148;11.568;2023-04-01T00:51:16;0.47;;;0.47;;
6249;SDS011;3158;52.148;11.568;2023-04-01T00:56:19;0.63;;;0.60;;
6249;SDS011;3158;52.148;11.568;2023-04-01T01:01:22;1.30;;;0.47;;
6249;SDS011;3158;52.148;11.568;2023-04-01T01:11:48;1.67;;;0.55;;
6249;SDS011;3158;52.148;11.568;2023-04-01T01:16:54;1.77;;;0.70;;
6249;SDS011;3158;52.148;11.568;2023-04-01T01:27:02;1.35;;;0.60;;
6249;SDS011;3158;52.148;11.568;2023-04-01T01:32:10;0.95;;;0.70;;
6249;SDS011;3158;52.148;11.568;2023-04-01T01:37:16;1.45;;;0.63;;
6249;SDS011;3158;52.148;11.568;2023-04-01T01:42:18;1.50;;;0.60;;
6249;SDS011;3158;52.148;11.568;2023-04-01T01:47:21;1.85;;;0.70;;
6249;SDS011;3158;52.148;11.568;2023-04-01T01:52:23;1.35;;;0.57;;
6249;SDS011;3158;52.148;11.568;2023-04-01T01:57:28;1.77;;;0.77;;
6249;SDS011;3158;52.148;11.568;2023-04-01T02:02:32;0.68;;;0.68;;
6249;SDS011;3158;52.148;11.568;2023-04-01T02:07:33;0.80;;;0.80;;
6249;SDS011;3158;52.148;11.568;2023-04-01T02:12:36;1.33;;;0.60;;
6249;SDS011;3158;52.148;11.568;2023-04-01T02:17:39;0.50;;;0.50;;
6249;SDS011;3158;52.148;11.568;2023-04-01T02:22:43;1.95;;;0.50;;
6249;SDS011;3158;52.148;11.568;2023-04-01T02:27:47;0.50;;;0.50;;
6249;SDS011;3158;52.148;11.568;2023-04-01T02:32:48;1.65;;;0.50;;
6249;SDS011;3158;52.148;11.568;2023-04-01T02:37:50;0.80;;;0.38;;
6249;SDS011;3158;52.148;11.568;2023-04-01T02:42:52;0.88;;;0.57;;
6249;SDS011;3158;52.148;11.568;2023-04-01T02:47:53;1.40;;;0.70;;
6249;SDS011;3158;52.148;11.568;2023-04-01T02:52:54;1.02;;;0.80;;
6249;SDS011;3158;52.148;11.568;2023-04-01T02:57:56;2.60;;;0.65;;
6249;SDS011;3158;52.148;11.568;2023-04-01T03:02:57;3.78;;;0.80;;
6249;SDS011;3158;52.148;11.568;2023-04-01T03:07:58;1.48;;;0.65;;
6249;SDS011;3158;52.148;11.568;2023-04-01T03:12:59;2.70;;;0.82;;
6249;SDS011;3158;52.148;11.568;2023-04-01T03:18:00;0.90;;;0.90;;
6249;SDS011;3158;52.148;11.568;2023-04-01T03:23:03;1.02;;;0.80;;
6249;SDS011;3158;52.148;11.568;2023-04-01T03:28:03;2.45;;;1.13;;
6249;SDS011;3158;52.148;11.568;2023-04-01T03:33:05;1.85;;;0.82;;
6249;SDS011;3158;52.148;11.568;2023-04-01T03:38:06;3.55;;;0.90;;
6249;SDS011;3158;52.148;11.568;2023-04-01T03:43:07;2.75;;;1.13;;
6249;SDS011;3158;52.148;11.568;2023-04-01T03:48:11;3.15;;;1.20;;
6249;SDS011;3158;52.148;11.568;2023-04-01T03:53:12;2.30;;;1.00;;
6249;SDS011;3158;52.148;11.568;2023-04-01T03:58:16;1.90;;;0.80;;
6249;SDS011;3158;52.148;11.568;2023-04-01T04:03:17;1.00;;;1.00;;
6249;SDS011;3158;52.148;11.568;2023-04-01T04:08:18;1.10;;;1.00;;
6249;SDS011;3158;52.148;11.568;2023-04-01T04:13:21;2.25;;;1.17;;
6249;SDS011;3158;52.148;11.568;2023-04-01T04:18:29;3.13;;;1.30;;
6249;SDS011;3158;52.148;11.568;2023-04-01T04:23:31;2.50;;;1.05;;
6249;SDS011;3158;52.148;11.568;2023-04-01T04:28:33;5.18;;;1.33;;
6249;SDS011;3158;52.148;11.568;2023-04-01T04:33:35;1.30;;;1.17;;
6249;SDS011;3158;52.148;11.568;2023-04-01T04:38:37;1.02;;;0.88;;
6249;SDS011;3158;52.148;11.568;2023-04-01T04:43:39;7.40;;;1.48;;
6249;SDS011;3158;52.148;11.568;2023-04-01T04:48:40;3.28;;;0.98;;
6249;SDS011;3158;52.148;11.568;2023-04-01T04:53:44;0.82;;;0.80;;
6249;SDS011;3158;52.148;11.568;2023-04-01T04:58:45;0.90;;;0.90;;
6249;SDS011;3158;52.148;11.568;2023-04-01T05:03:51;2.25;;;1.10;;
6249;SDS011;3158;52.148;11.568;2023-04-01T05:08:52;1.45;;;0.82;;
6249;SDS011;3158;52.148;11.568;2023-04-01T05:13:53;3.03;;;0.73;;
6249;SDS011;3158;52.148;11.568;2023-04-01T05:18:54;1.05;;;1.05;;
6249;SDS011;3158;52.148;11.568;2023-04-01T05:23:56;1.65;;;1.00;;
6249;SDS011;3158;52.148;11.568;2023-04-01T05:28:58;2.53;;;1.27;;
6249;SDS011;3158;52.148;11.568;2023-04-01T05:33:59;0.68;;;0.68;;
6249;SDS011;3158;52.148;11.568;2023-04-01T05:39:02;1.25;;;0.90;;
6249;SDS011;3158;52.148;11.568;2023-04-01T05:44:03;0.85;;;0.85;;
6249;SDS011;3158;52.148;11.568;2023-04-01T05:49:14;1.08;;;0.80;;
6249;SDS011;3158;52.148;11.568;2023-04-01T05:54:15;1.40;;;0.73;;
6249;SDS011;3158;52.148;11.568;2023-04-01T05:59:19;1.48;;;0.70;;
6249;SDS011;3158;52.148;11.568;2023-04-01T06:04:20;0.77;;;0.70;;
6249;SDS011;3158;52.148;11.568;2023-04-01T06:09:25;0.98;;;0.95;;
6249;SDS011;3158;52.148;11.568;2023-04-01T06:35:29;0.85;;;0.85;;
6249;SDS011;3158;52.148;11.568;2023-04-01T06:56:43;0.85;;;0.85;;
6249;SDS011;3158;52.148;11.568;2023-04-01T07:01:57;1.05;;;0.75;;
6249;SDS011;3158;52.148;11.568;2023-04-01T07:07:03;1.17;;;1.08;;
6249;SDS011;3158;52.148;11.568;2023-04-01T07:12:09;0.70;;;0.70;;
6249;SDS011;3158;52.148;11.568;2023-04-01T07:17:31;0.50;;;0.50;;
6249;SDS011;3158;52.148;11.568;2023-04-01T07:22:40;1.38;;;0.73;;
6249;SDS011;3158;52.148;11.568;2023-04-01T07:28:05;0.85;;;0.73;;
6249;SDS011;3158;52.148;11.568;2023-04-01T07:33:11;2.90;;;0.50;;
6249;SDS011;3158;52.148;11.568;2023-04-01T07:59:21;1.30;;;0.70;;
6249;SDS011;3158;52.148;11.568;2023-04-01T08:04:35;1.50;;;0.70;;
6249;SDS011;3158;52.148;11.568;2023-04-01T08:10:00;0.60;;;0.60;;
6249;SDS011;3158;52.148;11.568;2023-04-01T08:15:38;1.90;;;0.63;;
6249;SDS011;3158;52.148;11.568;2023-04-01T08:21:02;1.83;;;0.40;;
6249;SDS011;3158;52.148;11.568;2023-04-01T08:26:06;0.40;;;0.40;;
6249;SDS011;3158;52.148;11.568;2023-04-01T08:31:32;0.35;;;0.30;;
6249;SDS011;3158;52.148;11.568;2023-04-01T08:36:36;2.83;;;0.40;;
6249;SDS011;3158;52.148;11.568;2023-04-01T08:47:24;0.30;;;0.30;;
6249;SDS011;3158;52.148;11.568;2023-04-01T08:52:34;0.73;;;0.40;;
6249;SDS011;3158;52.148;11.568;2023-04-01T08:57:45;1.67;;;0.50;;
6249;SDS011;3158;52.148;11.568;2023-04-01T09:39:35;0.40;;;0.40;;
6249;SDS011;3158;52.148;11.568;2023-04-01T09:44:47;1.13;;;0.40;;
6249;SDS011;3158;52.148;11.568;2023-04-01T09:50:03;1.50;;;0.30;;
6249;SDS011;3158;52.148;11.568;2023-04-01T09:55:19;0.73;;;0.30;;
6249;SDS011;3158;52.148;11.568;2023-04-01T10:21:44;0.30;;;0.30;;
6249;SDS011;3158;52.148;11.568;2023-04-01T10:32:49;0.65;;;0.30;;
6249;SDS011;3158;52.148;11.568;2023-04-01T10:43:38;0.55;;;0.20;;
6249;SDS011;3158;52.148;11.568;2023-04-01T10:54:38;0.43;;;0.20;;
6249;SDS011;3158;52.148;11.568;2023-04-01T10:59:47;0.30;;;0.30;;
6249;SDS011;3158;52.148;11.568;2023-04-01T11:10:50;0.50;;;0.25;;
6249;SDS011;3158;52.148;11.568;2023-04-01T11:21:26;0.98;;;0.20;;
6249;SDS011;3158;52.148;11.568;2023-04-01T11:26:50;0.25;;;0.22;;
6249;SDS011;3158;52.148;11.568;2023-04-01T11:42:51;1.17;;;0.40;;
6249;SDS011;3158;52.148;11.568;2023-04-01T11:48:24;0.20;;;0.20;;
6249;SDS011;3158;52.148;11.568;2023-04-01T11:53:41;0.22;;;0.20;;
6249;SDS011;3158;52.148;11.568;2023-04-01T12:09:22;0.95;;;0.35;;
6249;SDS011;3158;52.148;11.568;2023-04-01T12:24:59;2.28;;;0.30;;
6249;SDS011;3158;52.148;11.568;2023-04-01T12:35:21;0.20;;;0.20;;
6249;SDS011;3158;52.148;11.568;2023-04-01T12:40:57;0.20;;;0.20;;
6249;SDS011;3158;52.148;11.568;2023-04-01T12:45:54;0.20;;;0.20;;
6249;SDS011;3158;52.148;11.568;2023-04-01T12:51:09;0.20;;;0.20;;
6249;SDS011;3158;52.148;11.568;2023-04-01T12:56:20;0.10;;;0.10;;
6249;SDS011;3158;52.148;11.568;2023-04-01T13:07:22;0.10;;;0.10;;
6249;SDS011;3158;52.148;11.568;2023-04-01T13:27:42;0.08;;;0.08;;
6249;SDS011;3158;52.148;11.568;2023-04-01T13:32:47;0.25;;;0.10;;
6249;SDS011;3158;52.148;11.568;2023-04-01T13:37:52;0.20;;;0.20;;
6249;SDS011;3158;52.148;11.568;2023-04-01T13:42:57;0.98;;;0.45;;
6249;SDS011;3158;52.148;11.568;2023-04-01T14:04:03;0.40;;;0.40;;
6249;SDS011;3158;52.148;11.568;2023-04-01T14:09:18;0.50;;;0.50;;
6249;SDS011;3158;52.148;11.568;2023-04-01T14:14:31;1.23;;;0.60;;
6249;SDS011;3158;52.148;11.568;2023-04-01T14:29:53;0.80;;;0.80;;
6249;SDS011;3158;52.148;11.568;2023-04-01T14:45:45;1.05;;;1.05;;
6249;SDS011;3158;52.148;11.568;2023-04-01T14:50:47;1.20;;;1.20;;
6249;SDS011;3158;52.148;11.568;2023-04-01T14:55:54;1.77;;;1.70;;
6249;SDS011;3158;52.148;11.568;2023-04-01T15:11:38;1.13;;;1.13;;
6249;SDS011;3158;52.148;11.568;2023-04-01T15:21:50;1.33;;;1.33;;
6249;SDS011;3158;52.148;11.568;2023-04-01T15:27:02;1.55;;;1.55;;
6249;SDS011;3158;52.148;11.568;2023-04-01T15:52:43;1.35;;;1.35;;
6249;SDS011;3158;52.148;11.568;2023-04-01T16:08:20;1.35;;;1.35;;
6249;SDS011;3158;52.148;11.568;2023-04-01T16:13:42;1.25;;;1.25;;
6249;SDS011;3158;52.148;11.568;2023-04-01T16:23:49;1.02;;;1.02;;
6249;SDS011;3158;52.148;11.568;2023-04-01T16:34:04;1.05;;;0.80;;
6249;SDS011;3158;52.148;11.568;2023-04-01T16:44:29;1.23;;;1.23;;
6249;SDS011;3158;52.148;11.568;2023-04-01T16:49:32;1.27;;;1.27;;
6249;SDS011;3158;52.148;11.568;2023-04-01T16:54:45;1.20;;;1.20;;
6249;SDS011;3158;52.148;11.568;2023-04-01T17:05:18;1.48;;;1.38;;
6249;SDS011;3158;52.148;11.568;2023-04-01T17:20:42;1.35;;;1.30;;
6249;SDS011;3158;52.148;11.568;2023-04-01T17:35:58;1.10;;;1.00;;
6249;SDS011;3158;52.148;11.568;2023-04-01T17:41:02;0.60;;;0.57;;
6249;SDS011;3158;52.148;11.568;2023-04-01T17:46:22;1.10;;;1.00;;
6249;SDS011;3158;52.148;11.568;2023-04-01T17:51:33;3.03;;;0.63;;
6249;SDS011;3158;52.148;11.568;2023-04-01T17:56:42;0.60;;;0.60;;
6249;SDS011;3158;52.148;11.568;2023-04-01T18:12:25;1.05;;;1.05;;
6249;SDS011;3158;52.148;11.568;2023-04-01T18:22:44;0.65;;;0.65;;
6249;SDS011;3158;52.148;11.568;2023-04-01T18:27:47;0.73;;;0.63;;
6249;SDS011;3158;52.148;11.568;2023-04-01T18:32:59;0.68;;;0.68;;
6249;SDS011;3158;52.148;11.568;2023-04-01T18:43:30;0.50;;;0.50;;
6249;SDS011;3158;52.148;11.568;2023-04-01T18:48:44;0.73;;;0.73;;
6249;SDS011;3158;52.148;11.568;2023-04-01T18:53:52;0.60;;;0.60;;
6249;SDS011;3158;52.148;11.568;2023-04-01T19:04:15;0.60;;;0.60;;
6249;SDS011;3158;52.148;11.568;2023-04-01T19:09:21;0.50;;;0.50;;
6249;SDS011;3158;52.148;11.568;2023-04-01T19:14:41;0.70;;;0.70;;
6249;SDS011;3158;52.148;11.568;2023-04-01T19:24:55;0.50;;;0.50;;
6249;SDS011;3158;52.148;11.568;2023-04-01T19:30:22;0.73;;;0.73;;
6249;SDS011;3158;52.148;11.568;2023-04-01T19:40:59;0.95;;;0.60;;
6249;SDS011;3158;52.148;11.568;2023-04-01T19:46:05;0.65;;;0.50;;
6249;SDS011;3158;52.148;11.568;2023-04-01T19:56:20;2.03;;;0.93;;
6249;SDS011;3158;52.148;11.568;2023-04-01T20:11:38;2.53;;;0.98;;
6249;SDS011;3158;52.148;11.568;2023-04-01T20:16:48;0.90;;;0.90;;
6249;SDS011;3158;52.148;11.568;2023-04-01T20:21:50;1.58;;;1.35;;
6249;SDS011;3158;52.148;11.568;2023-04-01T20:26:59;1.75;;;1.60;;
6249;SDS011;3158;52.148;11.568;2023-04-01T20:42:55;1.98;;;1.08;;
6249;SDS011;3158;52.148;11.568;2023-04-01T20:48:05;1.25;;;1.25;;
6249;SDS011;3158;52.148;11.568;2023-04-01T20:53:20;4.60;;;1.50;;
6249;SDS011;3158;52.148;11.568;2023-04-01T21:04:07;1.83;;;1.73;;
6249;SDS011;3158;52.148;11.568;2023-04-01T21:09:20;1.30;;;1.30;;
6249;SDS011;3158;52.148;11.568;2023-04-01T21:14:43;4.32;;;2.58;;
6249;SDS011;3158;52.148;11.568;2023-04-01T21:19:54;5.10;;;2.03;;
6249;SDS011;3158;52.148;11.568;2023-04-01T21:30:32;1.95;;;1.85;;
6249;SDS011;3158;52.148;11.568;2023-04-01T21:35:43;1.98;;;1.88;;
6249;SDS011;3158;52.148;11.568;2023-04-01T21:40:50;3.85;;;2.45;;
6249;SDS011;3158;52.148;11.568;2023-04-01T21:51:26;2.22;;;2.13;;
6249;SDS011;3158;52.148;11.568;2023-04-01T22:01:58;4.10;;;2.17;;
6249;SDS011;3158;52.148;11.568;2023-04-01T22:12:25;2.80;;;2.60;;
6249;SDS011;3158;52.148;11.568;2023-04-01T22:17:32;3.00;;;2.78;;
6249;SDS011;3158;52.148;11.568;2023-04-01T22:27:58;2.25;;;2.15;;
6249;SDS011;3158;52.148;11.568;2023-04-01T22:33:05;3.65;;;2.13;;
6249;SDS011;3158;52.148;11.568;2023-04-01T22:38:15;2.60;;;2.40;;
6249;SDS011;3158;52.148;11.568;2023-04-01T22:43:41;2.58;;;2.47;;
6249;SDS011;3158;52.148;11.568;2023-04-01T22:59:22;5.13;;;3.28;;
6249;SDS011;3158;52.148;11.568;2023-04-01T23:04:29;2.78;;;2.58;;
6249;SDS011;3158;52.148;11.568;2023-04-01T23:09:33;3.85;;;2.30;;
6249;SDS011;3158;52.148;11.568;2023-04-01T23:14:49;10.45;;;2.83;;
6249;SDS011;3158;52.148;11.568;2023-04-01T23:19:53;2.70;;;2.20;;
6249;SDS011;3158;52.148;11.568;2023-04-01T23:30:46;2.45;;;2.20;;
6249;SDS011;3158;52.148;11.568;2023-04-01T23:35:50;6.25;;;2.67;;
6249;SDS011;3158;52.148;11.568;2023-04-01T23:40:52;2.83;;;2.72;;
6249;SDS011;3158;52.148;11.568;2023-04-01T23:45:54;3.17;;;2.88;;
6249;SDS011;3158;52.148;11.568;2023-04-01T23:50:56;2.53;;;2.42;;
6249;SDS011;3158;52.148;11.568;2023-04-01T23:55:57;6.72;;;2.90;;
